juin
27

GP DE LETTONIE : GONCALVES ET DE DYCKER EN PÔLE

lettonieflag09

MX1 – Qualifying Race Classification
Pos Nr Rider Nat. Fed. Bike Time laps Diff. First Diff. Prev. Bestlaptime in lap Speed

1 9 de Dycker, Ken BEL FMB Suzuki 24:40.487 12 0:00.000 0:00.000 1:54.118 2 51.736
2 8 Leok, Tanel EST EMF Yamaha 24:48.002 12 0:07.515 0:07.515 1:55.662 4 51.045
3 25 Desalle, Clement BEL FMB Honda 24:50.190 12 0:09.703 0:02.188 1:55.969 2 50.91
4 19 Philippaerts, David ITA FMI Yamaha 24:51.901 12 0:11.414 0:01.711 1:56.383 3 50.729
5 5 Nagl, Maximilian GER DMSB KTM 24:57.345 12 0:16.858 0:05.444 1:56.741 2 50.573
6 6 Coppins, Joshua NZL MNZ Yamaha 25:06.608 12 0:26.121 0:09.263 1:57.521 3 50.238
7 222 Cairoli, Antonio ITA FMI Yamaha 25:15.484 12 0:34.997 0:08.876 1:54.564 4 51.535
8 111 Leok, Aigar EST EMF TM 25:30.718 12 0:50.231 0:15.234 1:57.445 4 50.27
9 17 Swanepoel, Gareth RSA MSA Kawasaki 25:37.269 12 0:56.782 0:06.551 1:58.613 2 49.775
10 32 Priem, Manuel BEL FMB Aprilia 25:40.835 12 1:00.348 0:03.566 1:59.394 5 49.45
11 46 Dougan, Jason GBR ACU CCM 25:45.082 12 1:04.595 0:04.247 1:58.993 6 49.616
12 121 Mackenzie, Bryan GBR ACU Honda 25:46.688 12 1:06.201 0:01.606 1:58.732 3 49.725
13 20 Aranda, Gregory FRA FFM Kawasaki 25:50.145 12 1:09.658 0:03.457 1:59.868 2 49.254
14 33 Carlsson, Johan SWE SVEMO Suzuki 25:53.007 12 1:12.520 0:02.862 2:00.507 3 48.993
15 115 Campano, Carlos ESP RFME Yamaha 25:55.706 12 1:15.219 0:02.699 2:00.502 2 48.995
16 56 van Vijfeijken, Rob NED KNMV Yamaha 25:58.157 12 1:17.670 0:02.451 2:00.874 5 48.844
17 77 Terreblanche, Shannon RSA MSA Kawasaki 25:58.773 12 1:18.286 0:00.616 2:00.630 3 48.943
18 15 Bill, Julien SUI FMS Aprilia 26:00.010 12 1:19.523 0:01.237 2:01.068 4 48.766
19 156 Freibergs, Lauris LAT LAMSF Yamaha 26:00.256 12 1:19.769 0:00.246 2:00.954 2 48.812
20 52 Livs, Davis LAT LAMSF Yamaha 26:04.397 12 1:23.910 0:04.141 2:00.713 3 48.909
21 24 Church, Tom GBR ACU CCM 26:19.813 12 1:39.326 0:15.416 1:59.660 5 49.34
22 98 Richier, Florent FRA FFM Kawasaki 26:29.520 12 1:49.033 0:09.707 2:01.970 3 48.405
23 23 Kempelis, Filips LAT LAMSF Honda 24:55.794 11 1 lap(s) 1 lap(s) 2:06.328 5 46.735
24 198 Bucas, Vytautas LIT LMSF Honda 24:56.834 11 1 lap(s) 0:01.040 2:01.824 1 48.463
25 74 Steinbergs, Ivo LAT LAMSF Honda 25:04.800 11 1 lap(s) 0:07.966 2:01.639 4 48.537
26 801 Aleksandrovics, Martins LAT LAMSF Kawasaki 25:08.315 11 1 lap(s) 0:03.515 2:06.563 1 46.649
27 45 Leonce, Loic FRA FFM Aprilia 8:34.389 3 9 lap(s) 8 lap(s) 2:05.874 1 46.904
28 12 Vuillemin, David FRA FFM Kawasaki 5:50.276 2 10 lap(s) 1 lap(s) 2:06.354 1 46.726

MX2 – Qualifying Race Classification
Pos Nr Rider Nat. Fed. Bike Time laps Diff. First Diff. Prev. Bestlaptime in lap Speed

1 5 Goncalves, Rui POR FMP KTM 24:30.074 12 0:00.000 0:00.000 1:54.041 1 51.771
2 183 Frossard, Steven FRA FFM Kawasaki 24:35.275 12 0:05.201 0:05.201 1:54.677 6 51.484
3 25 Musquin, Marvin FRA FFM KTM 24:38.281 12 0:08.207 0:03.006 1:55.409 1 51.157
4 121 Boog, Xavier FRA FFM Suzuki 24:53.081 12 0:23.007 0:14.800 1:55.429 3 51.148
5 21 Paulin, Gautier FRA MCM Kawasaki 25:03.228 12 0:33.154 0:10.147 1:57.071 2 50.431
6 39 Guarneri, Davide ITA FMI Yamaha 25:07.729 12 0:37.655 0:04.501 1:56.710 10 50.587
7 34 Roelants, Joel BEL FMB KTM 25:08.985 12 0:38.911 0:01.256 1:56.799 10 50.548
8 27 Schiffer, Marcus GER DMSB KTM 25:18.816 12 0:48.742 0:09.831 1:56.714 2 50.585
9 335 Verbruggen, Dennis BEL FMB Honda 25:20.987 12 0:50.913 0:02.171 1:57.158 6 50.393
10 13 Monni, Manuel ITA FMI Yamaha 25:23.256 12 0:53.182 0:02.269 1:57.940 8 50.059
11 94 Roczen, Ken GER DMSB Suzuki 25:24.896 12 0:54.822 0:01.640 1:58.053 1 50.011
12 310 Tonkov, Aleksandr RUS DMSB Suzuki 25:27.519 12 0:57.445 0:02.623 1:56.583 1 50.642
13 56 Bobryshev, Evgeny RUS MFR Yamaha 25:29.046 12 0:58.972 0:01.527 1:58.197 2 49.951
14 119 Pocock, Mel GBR ACU Yamaha 25:29.340 12 0:59.266 0:00.294 1:58.587 5 49.786
15 3 Aubin, Nicolas FRA FFM Yamaha 25:32.111 12 1:02.037 0:02.771 1:57.849 2 50.098
16 37 Teillet, Valentin FRA FFM KTM 25:33.350 12 1:03.276 0:01.239 1:58.115 2 49.985
17 23 Tonus, Arnaud SUI FMS KTM 25:49.784 12 1:19.710 0:16.434 1:58.738 4 49.723
18 95 Justs, Augusts LAT LAMSF KTM 25:52.066 12 1:21.992 0:02.282 2:01.385 5 48.639
19 202 Larrieu, Loic FRA FFM Yamaha 25:54.604 12 1:24.530 0:02.538 2:00.192 11 49.121
20 175 Larsen, Nikolai DEN DMU Suzuki 25:56.378 12 1:26.304 0:01.774 1:57.971 1 50.046
21 45 Nicholls, Jake GBR ACU KTM 25:58.442 12 1:28.368 0:02.064 1:57.249 1 50.354
22 51 Smitka, Petr CZE ACCR KTM 25:59.760 12 1:29.686 0:01.318 2:01.088 3 48.758
23 338 Osborne, Zach USA ACU Yamaha 26:05.672 12 1:35.598 0:05.912 2:00.160 3 49.134
24 131 Michek, Martin CZE ACCR TM 26:06.656 12 1:36.582 0:00.984 2:01.478 4 48.601
25 44 Kojima, Yohei JPN MFJ Suzuki 26:11.343 12 1:41.269 0:04.687 2:01.553 6 48.571
26 114 Uusna, Rannar EST EMF KTM 26:13.974 12 1:43.900 0:02.631 2:01.357 2 48.65
27 519 Rombaut, Loic FRA FFM Kawasaki 26:18.898 12 1:48.824 0:04.924 2:02.367 8 48.248
28 22 Boissiere, Anthony FRA FFM KTM 26:26.134 12 1:56.060 0:07.236 1:58.012 4 50.029
29 74 Macuks, Toms LAT LAMSF Honda 26:28.837 12 1:58.763 0:02.703 2:02.469 3 48.208
30 14 Philippaerts, Deny ITA FMI Yamaha 26:29.847 12 1:59.773 0:01.010 2:03.002 4 47.999
31 99 Ivanovs, Davis LAT LAMSF KTM 26:33.772 12 2:03.698 0:03.925 2:03.025 3 47.99
32 153 Maddii, Marco ITA FMI Suzuki 24:36.867 11 1 lap(s) 1 lap(s) 2:02.576 3 48.166
33 91 Karro, Matiss LAT LAMSF Suzuki 25:01.209 11 1 lap(s) 0:24.342 2:01.283 2 48.68
34 671 Magi, Indrek EST EMF Yamaha 25:02.162 11 1 lap(s) 0:00.953 2:04.349 3 47.479
35 89 van Horebeek, Jeremy BEL FMB KTM 19:04.761 7 5 lap(s) 4 lap(s) 1:56.356 3 50.741
36 24 Butron Oliva, Jose Antonio ESP RFME Suzuki 7:58.057 3 9 lap(s) 4 lap(s) 1:56.677 1 50.601
37 33 Soubeyras, Cedric FRA FFM Honda 6:06.217 2 10 lap(s) 1 lap(s) 2:03.884 1 47.657
38 30 Klein Kromhof, Ceriel NED KNMV KTM 3:24.877 1 11 lap(s) 1 lap(s) 2:00.206 1 49.116
39 17 Clermont, Jason FRA FFM Honda 3:34.145 1 11 lap(s) 0:09.268 2:04.438 1 47.445

A voir aussi :

Le commentaires sont fermés.